Latest Coastal Weather Observations for Point Stuart

IDD60701

Issued at 6:01 pm CST Tuesday 28 July 2015 (issued every 10 minutes, with the page automatically refreshed every 10 minutes)

About coastal observations | Map of coastal stations | Coastal observations for NT | Marine services | Other Formats
Station Details ID: 014254 Name: POINT STUART Lat: -12.24 Lon: 131.88 Height: 1.0 m
Data from the previous 72 hours. | See also: Recent months for locations in Northern Territory
Date/Time
CST
Temp

°C
Wind Pressure Rain
since 9am
mm
Weather Cloud Vis
km
Sea
Height
m
Swell
Dir
 
Speed
knots
Gust
knots
hPa Trend Height
m
Period
s
Dir
28/06:00pm 29.2 NE 5 7 1014.6 - 0.0 - - - - - - -
28/05:30pm 31.5 ESE 10 14 1014.3 - 0.0 - - - - - - -
28/05:00pm 31.8 ESE 12 19 1014.1 - 0.0 - - - - - - -
28/04:30pm 32.1 ESE 12 17 1014.0 - 0.0 - - - - - - -
28/04:00pm 32.3 E 13 17 1013.9 - 0.0 - - - - - - -
28/03:30pm 32.0 ESE 13 18 1014.2 - 0.0 - - - - - - -
28/03:00pm 32.4 E 12 17 1014.4 - 0.0 - - - - - - -
28/02:30pm 32.2 E 12 17 1014.6 - 0.0 - - - - - - -
28/02:00pm 32.0 E 15 19 1015.2 - 0.0 - - - - - - -
28/01:30pm 31.4 ESE 14 21 1015.5 - 0.0 - - - - - - -
28/01:27pm 31.6 SE 15 29 1015.6 - 0.0 - - - - - - -
28/01:00pm 30.9 SE 16 23 1016.0 - 0.0 - - - - - - -
28/12:30pm 30.3 ESE 14 22 1016.4 - 0.0 - - - - - - -
28/12:00pm 29.8 ESE 14 19 1016.8 - 0.0 - - - - - - -
28/11:30am 28.7 ESE 15 21 1017.2 - 0.0 - - - - - - -
28/11:00am 27.7 ESE 15 19 1017.5 - 0.0 - - - - - - -
28/10:30am 27.6 ESE 16 22 1017.8 - 0.0 - - - - - - -
28/10:00am 26.7 ESE 14 22 1017.8 - 0.0 - - - - - - -
28/09:30am 25.9 ESE 12 18 1017.9 - 0.0 - - - - - - -
28/09:00am 24.5 SE 11 17 1018.0 - 0.0 - - - - - - -
28/08:30am 23.7 SSE 9 13 1017.8 - 0.0 - - - - - - -
28/08:00am 22.7 SE 8 10 1017.6 - 0.0 - - - - - - -
28/07:30am 21.7 SE 8 11 1017.4 - 0.0 - - - - - - -
28/07:00am 21.5 SE 10 13 1017.3 - 0.0 - - - - - - -
28/06:30am 21.7 SE 9 14 1016.9 - 0.0 - - - - - - -
28/06:00am 21.4 SSE 9 11 1016.7 - 0.0 - - - - - - -
28/05:30am 21.5 SSE 8 11 1016.7 - 0.0 - - - - - - -
28/05:00am 21.1 SSE 7 9 1016.5 - 0.0 - - - - - - -
28/04:30am 20.8 SE 6 7 1016.5 - 0.0 - - - - - - -
28/04:00am 21.2 SE 6 8 1016.5 - 0.0 - - - - - - -
28/03:30am 22.2 ESE 8 10 1016.4 - 0.0 - - - - - - -
28/03:00am 21.9 ESE 8 9 1016.2 - 0.0 - - - - - - -
28/02:30am 21.1 ESE 6 7 1016.3 - 0.0 - - - - - - -
28/02:00am 21.9 SE 5 6 1016.4 - 0.0 - - - - - - -
28/01:30am 21.7 ESE 6 6 1016.4 - 0.0 - - - - - - -
28/01:00am 22.3 ESE 5 6 1016.4 - 0.0 - - - - - - -
28/12:30am 22.8 ESE 5 6 1016.3 - 0.0 - - - - - - -
28/12:00am 23.8 ESE 3 4 1016.3 - 0.0 - - - - - - -
 
Date/Time
CST
Temp

°C
Wind Pressure Rain
since 9am
mm
Weather Cloud Vis
km
Sea
Height
m
Swell
Dir
 
Speed
knots
Gust
knots
hPa Trend Height
m
Period
s
Dir
27/11:30pm 24.9 ESE 7 9 1016.4 - 0.0 - - - - - - -
27/11:00pm 25.2 SE 8 11 1016.4 - 0.0 - - - - - - -
27/10:30pm 25.0 SE 8 11 1016.3 - 0.0 - - - - - - -
27/10:00pm 23.4 SSE 5 6 1016.1 - 0.0 - - - - - - -
27/09:30pm 23.8 WSW 2 4 1015.8 - 0.0 - - - - - - -
27/09:00pm 24.0 WSW 2 4 1015.6 - 0.0 - - - - - - -
27/08:30pm 24.3 SW 3 5 1015.5 - 0.0 - - - - - - -
27/08:00pm 25.0 CALM 0 0 1015.2 - 0.0 - - - - - - -
27/07:30pm 25.4 CALM 0 0 1014.8 - 0.0 - - - - - - -
27/07:00pm 26.2 N 3 4 1014.5 - 0.0 - - - - - - -
27/06:30pm 27.5 N 3 4 1014.2 - 0.0 - - - - - - -
27/06:00pm 28.7 N 2 4 1013.9 - 0.0 - - - - - - -
27/05:30pm 29.1 NNW 5 7 1013.6 - 0.0 - - - - - - -
27/05:00pm 30.4 NNW 5 8 1013.5 - 0.0 - - - - - - -
27/04:30pm 31.1 NNW 6 9 1013.3 - 0.0 - - - - - - -
27/04:00pm 30.9 NW 8 11 1013.3 - 0.0 - - - - - - -
27/03:30pm 31.3 NNW 6 10 1013.4 - 0.0 - - - - - - -
27/03:00pm 31.5 N 6 11 1013.5 - 0.0 - - - - - - -
27/02:30pm 32.1 NNE 7 12 1013.7 - 0.0 - - - - - - -
27/02:00pm 31.6 NNE 7 11 1014.2 - 0.0 - - - - - - -
27/01:30pm 31.1 NNE 10 15 1014.7 - 0.0 - - - - - - -
27/01:00pm 31.1 NE 11 17 1015.3 - 0.0 - - - - - - -
27/12:30pm 30.4 NNE 11 16 1015.9 - 0.0 - - - - - - -
27/12:00pm 31.0 NE 10 14 1016.5 - 0.0 - - - - - - -
27/11:30am 30.6 ENE 12 16 1016.8 - 0.0 - - - - - - -
27/11:00am 30.9 E 12 16 1017.2 - 0.0 - - - - - - -
27/10:30am 30.7 E 12 17 1017.5 - 0.0 - - - - - - -
27/10:00am 29.8 SE 7 10 1017.8 - 0.0 - - - - - - -
27/09:30am 28.3 S 7 9 1018.1 - 0.0 - - - - - - -
27/09:00am 27.0 SSE 6 8 1018.2 - 0.0 - - - - - - -
27/08:30am 25.8 S 5 7 1017.8 - 0.0 - - - - - - -
27/08:00am 24.5 SSE 3 4 1017.4 - 0.0 - - - - - - -
27/07:30am 22.9 S 5 6 1016.9 - 0.0 - - - - - - -
27/07:00am 22.2 S 5 5 1016.6 - 0.0 - - - - - - -
27/06:30am 22.4 CALM 0 0 1016.2 - 0.0 - - - - - - -
27/06:00am 22.5 CALM 0 0 1016.0 - 0.0 - - - - - - -
27/05:30am 22.6 CALM 0 0 1015.8 - 0.0 - - - - - - -
27/05:00am 23.1 CALM 0 0 1015.8 - 0.0 - - - - - - -
27/04:30am 23.2 CALM 0 3 1015.8 - 0.0 - - - - - - -
27/04:00am 23.4 SSW 5 6 1015.9 - 0.0 - - - - - - -
27/03:30am 23.4 SSW 3 4 1016.0 - 0.0 - - - - - - -
27/03:00am 23.7 S 5 6 1016.4 - 0.0 - - - - - - -
27/02:30am 23.8 S 4 5 1016.5 - 0.0 - - - - - - -
27/02:00am 24.3 SSW 4 5 1016.7 - 0.0 - - - - - - -
27/01:30am 24.4 SW 5 6 1017.0 - 0.0 - - - - - - -
27/01:00am 24.7 SW 7 8 1017.1 - 0.0 - - - - - - -
27/12:30am 25.2 NNE 1 4 1017.0 - 0.0 - - - - - - -
27/12:00am 25.2 NNE 4 5 1016.9 - 0.0 - - - - - - -
 
Date/Time
CST
Temp

°C
Wind Pressure Rain
since 9am
mm
Weather Cloud Vis
km
Sea
Height
m
Swell
Dir
 
Speed
knots
Gust
knots
hPa Trend Height
m
Period
s
Dir
26/11:30pm 25.2 N 4 6 1017.0 - 0.0 - - - - - - -
26/11:00pm 25.4 NNE 4 6 1017.1 - 0.0 - - - - - - -
26/10:30pm 25.6 NNE 5 7 1017.0 - 0.0 - - - - - - -
26/10:00pm 25.7 N 4 6 1016.8 - 0.0 - - - - - - -
26/09:30pm 25.7 N 4 5 1016.5 - 0.0 - - - - - - -
26/09:00pm 25.9 N 4 5 1016.4 - 0.0 - - - - - - -
26/08:30pm 26.0 N 4 6 1016.2 - 0.0 - - - - - - -
26/08:00pm 25.6 N 3 4 1016.0 - 0.0 - - - - - - -
26/07:30pm 26.0 CALM 0 2 1015.4 - 0.0 - - - - - - -
26/07:00pm 26.4 NW 4 5 1014.8 - 0.0 - - - - - - -
26/06:30pm 27.4 NNW 4 7 1014.4 - 0.0 - - - - - - -
26/06:00pm 28.7 NNW 6 9 1014.1 - 0.0 - - - - - - -
26/05:30pm 29.7 NNW 9 11 1013.8 - 0.0 - - - - - - -
26/05:00pm 29.7 NNW 8 11 1013.6 - 0.0 - - - - - - -
26/04:30pm 30.0 NW 10 13 1013.5 - 0.0 - - - - - - -
26/04:00pm 31.6 NW 8 12 1013.5 - 0.0 - - - - - - -
26/03:30pm 31.8 NW 8 11 1013.4 - 0.0 - - - - - - -
26/03:00pm 31.4 N 6 11 1013.6 - 0.0 - - - - - - -
26/02:30pm 30.5 N 7 11 1013.8 - 0.0 - - - - - - -
26/02:00pm 31.3 N 7 11 1014.0 - 0.0 - - - - - - -
26/01:30pm 31.8 NNE 8 14 1014.4 - 0.0 - - - - - - -
26/01:00pm 31.8 NE 11 14 1014.8 - 0.0 - - - - - - -
26/12:30pm 31.1 ENE 12 15 1015.3 - 0.0 - - - - - - -
26/12:00pm 30.9 NE 10 13 1015.9 - 0.0 - - - - - - -
26/11:30am 30.9 ENE 9 13 1016.5 - 0.0 - - - - - - -
26/11:00am 30.6 SE 8 14 1016.8 - 0.0 - - - - - - -
26/10:30am 29.1 S 6 9 1016.9 - 0.0 - - - - - - -
26/10:00am 27.7 S 5 8 1017.1 - 0.0 - - - - - - -
26/09:30am 26.8 S 5 7 1017.4 - 0.0 - - - - - - -
26/09:00am 26.0 S 5 7 1017.4 - 0.0 - - - - - - -
26/08:30am 24.0 SSW 4 6 1017.0 - 0.0 - - - - - - -
26/08:00am 22.6 S 3 4 1016.7 - 0.0 - - - - - - -
26/07:30am 21.2 WSW 2 3 1016.4 - 0.0 - - - - - - -
26/07:00am 21.1 S 3 4 1016.0 - 0.0 - - - - - - -
26/06:30am 21.0 S 3 4 1015.8 - 0.0 - - - - - - -
26/06:00am 21.2 S 3 4 1015.6 - 0.0 - - - - - - -
26/05:30am 21.4 S 4 5 1015.8 - 0.0 - - - - - - -
26/05:00am 22.0 S 2 3 1015.8 - 0.0 - - - - - - -
26/04:30am 22.0 S 4 5 1015.8 - 0.0 - - - - - - -
26/04:00am 22.0 S 3 4 1015.9 - 0.0 - - - - - - -
26/03:30am 22.2 S 5 6 1015.8 - 0.0 - - - - - - -
26/03:00am 22.2 S 4 5 1016.0 - 0.0 - - - - - - -
26/02:30am 22.0 S 4 4 1016.2 - 0.0 - - - - - - -
26/02:00am 21.9 CALM 0 0 1016.3 - 0.0 - - - - - - -
26/01:30am 22.3 CALM 0 0 1016.4 - 0.0 - - - - - - -
26/01:00am 22.6 S 3 4 1016.7 - 0.0 - - - - - - -
26/12:30am 22.1 SSW 4 5 1016.5 - 0.0 - - - - - - -
26/12:00am 22.3 S 3 4 1016.5 - 0.0 - - - - - - -
 
Date/Time
CST
Temp

°C
Wind Pressure Rain
since 9am
mm
Weather Cloud Vis
km
Sea
Height
m
Swell
Dir
 
Speed
knots
Gust
knots
hPa Trend Height
m
Period
s
Dir
25/11:30pm 23.0 S 3 5 1016.6 - 0.0 - - - - - - -
25/11:00pm 23.0 SW 3 5 1016.7 - 0.0 - - - - - - -
25/10:30pm 24.3 N 3 4 1016.3 - 0.0 - - - - - - -
25/10:00pm 24.6 N 3 4 1016.1 - 0.0 - - - - - - -
25/09:30pm 24.9 N 5 8 1015.6 - 0.0 - - - - - - -
25/09:00pm 25.1 N 5 8 1015.2 - 0.0 - - - - - - -
25/08:30pm 25.6 NNE 6 8 1015.1 - 0.0 - - - - - - -
25/08:00pm 25.1 N 4 5 1014.7 - 0.0 - - - - - - -
25/07:30pm 24.6 CALM 0 0 1014.2 - 0.0 - - - - - - -
25/07:00pm 25.6 NNW 2 4 1013.8 - 0.0 - - - - - - -
25/06:30pm 26.4 NNW 4 6 1013.2 - 0.0 - - - - - - -

Other Formats:

Comma delimited format used in spreadsheet applications
http://www.bom.gov.au/fwo/IDD60701/IDD60701.94127.axf

JavaScript Object Notation format (JSON) in row-major order
http://www.bom.gov.au/fwo/IDD60701/IDD60701.94127.json